createdAt,value
2023-07-22T00:00:39.883Z,99.05
2023-07-22T00:03:06.613Z,99.17
2023-07-22T00:05:33.255Z,99.20
2023-07-22T00:07:59.800Z,98.76
2023-07-22T00:10:26.387Z,99.53
2023-07-22T00:12:53.002Z,99.13
2023-07-22T00:15:21.538Z,99.61
2023-07-22T00:17:48.184Z,99.60
2023-07-22T00:20:15.210Z,99.67
2023-07-22T00:22:42.358Z,99.09
2023-07-22T00:25:11.639Z,99.89
2023-07-22T00:27:39.109Z,99.66
2023-07-22T00:30:07.737Z,99.29
2023-07-22T00:32:34.757Z,99.94
2023-07-22T00:35:01.594Z,99.42
2023-07-22T00:37:28.439Z,99.85
2023-07-22T00:39:56.113Z,100.00
2023-07-22T00:42:22.756Z,100.00
2023-07-22T00:44:49.304Z,100.00
2023-07-22T00:47:17.224Z,99.89
2023-07-22T00:49:44.382Z,100.00
2023-07-22T00:52:11.003Z,100.00
2023-07-22T00:54:37.788Z,100.00
2023-07-22T00:57:04.397Z,100.00
2023-07-22T00:59:31.406Z,100.00
2023-07-22T01:01:58.136Z,100.00
2023-07-22T01:04:26.321Z,100.00
2023-07-22T01:06:56.318Z,100.00
2023-07-22T01:09:22.927Z,100.00
2023-07-22T01:11:49.620Z,100.00
2023-07-22T01:14:16.385Z,100.00
2023-07-22T01:16:43.404Z,100.00
2023-07-22T01:19:13.940Z,100.00
2023-07-22T01:21:43.583Z,100.00
2023-07-22T01:24:10.265Z,100.00
2023-07-22T01:26:37.290Z,100.00
2023-07-22T01:29:07.735Z,100.00
2023-07-22T01:31:36.824Z,100.00
2023-07-22T01:34:05.164Z,100.00
2023-07-22T01:36:31.824Z,100.00
2023-07-22T01:38:58.404Z,100.00
2023-07-22T01:41:25.101Z,100.00
2023-07-22T01:43:51.690Z,100.00
2023-07-22T01:46:18.339Z,100.00
2023-07-22T01:48:45.033Z,100.00
2023-07-22T01:51:12.407Z,100.00
2023-07-22T01:53:39.240Z,100.00
2023-07-22T01:56:06.250Z,100.00
2023-07-22T01:58:33.624Z,100.00
2023-07-22T02:01:00.743Z,100.00
2023-07-22T02:03:28.586Z,100.00
2023-07-22T02:06:02.502Z,100.00
2023-07-22T02:08:29.096Z,100.00
2023-07-22T02:10:55.753Z,100.00
2023-07-22T02:13:22.340Z,100.00
2023-07-22T02:15:48.910Z,100.00
2023-07-22T02:18:15.488Z,100.00
2023-07-22T02:20:44.046Z,100.00
2023-07-22T02:23:11.143Z,100.00
2023-07-22T02:25:37.835Z,100.00
2023-07-22T02:28:04.752Z,100.00
2023-07-22T02:30:31.598Z,100.00
2023-07-22T02:32:58.263Z,100.00
2023-07-22T02:35:24.839Z,100.00
2023-07-22T02:37:51.435Z,100.00
2023-07-22T02:40:17.986Z,100.00
2023-07-22T02:42:44.659Z,100.00
2023-07-22T02:45:11.420Z,100.00
2023-07-22T02:47:38.269Z,100.00
2023-07-22T02:50:06.028Z,100.00
2023-07-22T02:52:32.856Z,100.00
2023-07-22T02:55:15.900Z,100.00
2023-07-22T02:57:43.163Z,100.00
2023-07-22T03:00:10.232Z,100.00
2023-07-22T03:02:37.053Z,100.00
2023-07-22T03:05:09.327Z,100.00
2023-07-22T03:07:37.673Z,100.00
2023-07-22T03:10:05.897Z,100.00
2023-07-22T03:12:33.599Z,100.00
2023-07-22T03:15:00.223Z,100.00
2023-07-22T03:17:27.542Z,100.00
2023-07-22T03:19:54.204Z,100.00
2023-07-22T03:22:20.860Z,100.00
2023-07-22T03:24:47.597Z,100.00
2023-07-22T03:27:17.430Z,100.00
2023-07-22T03:29:44.946Z,100.00
2023-07-22T03:32:11.554Z,100.00
2023-07-22T03:34:38.233Z,100.00
2023-07-22T03:37:04.948Z,100.00
2023-07-22T03:39:31.936Z,100.00
2023-07-22T03:41:58.556Z,100.00
2023-07-22T03:44:27.008Z,100.00
2023-07-22T03:46:53.689Z,100.00
2023-07-22T03:49:20.341Z,100.00
2023-07-22T03:51:46.908Z,100.00
2023-07-22T03:54:13.441Z,100.00
2023-07-22T03:56:42.720Z,100.00
2023-07-22T03:59:09.372Z,100.00
2023-07-22T04:01:36.059Z,100.00
2023-07-22T04:04:02.779Z,100.00
2023-07-22T04:06:29.764Z,100.00
2023-07-22T04:08:56.588Z,100.00
2023-07-22T04:11:23.370Z,100.00
2023-07-22T04:13:50.056Z,100.00
2023-07-22T04:16:16.732Z,100.00
2023-07-22T04:18:43.323Z,100.00
2023-07-22T04:21:09.912Z,100.00
2023-07-22T04:23:36.613Z,100.00
2023-07-22T04:26:08.911Z,100.00
2023-07-22T04:28:36.034Z,100.00
2023-07-22T04:31:03.929Z,100.00
2023-07-22T04:33:30.857Z,100.00
2023-07-22T04:36:00.317Z,100.00
2023-07-22T04:38:27.288Z,100.00
2023-07-22T04:40:53.981Z,100.00
2023-07-22T04:43:22.969Z,100.00
2023-07-22T04:45:50.177Z,100.00
2023-07-22T04:48:18.907Z,100.00
2023-07-22T04:50:46.183Z,100.00
2023-07-22T04:53:17.068Z,100.00
2023-07-22T04:55:43.690Z,100.00
2023-07-22T04:58:11.900Z,100.00
2023-07-22T05:00:38.908Z,100.00
2023-07-22T05:03:06.134Z,100.00
2023-07-22T05:05:33.487Z,100.00
2023-07-22T05:08:00.089Z,100.00
2023-07-22T05:10:26.827Z,100.00
2023-07-22T05:12:53.511Z,100.00
2023-07-22T05:15:20.203Z,100.00
2023-07-22T05:17:47.634Z,100.00
2023-07-22T05:20:14.481Z,100.00
2023-07-22T05:22:41.795Z,100.00
2023-07-22T05:25:10.645Z,100.00
2023-07-22T05:27:37.645Z,100.00
2023-07-22T05:30:07.143Z,100.00
2023-07-22T05:32:37.322Z,100.00
2023-07-22T05:35:06.062Z,100.00
2023-07-22T05:37:33.437Z,100.00
2023-07-22T05:40:00.630Z,100.00
2023-07-22T05:42:27.244Z,100.00
2023-07-22T05:44:56.102Z,100.00
2023-07-22T05:47:23.377Z,100.00
2023-07-22T05:49:50.103Z,100.00
2023-07-22T05:52:18.349Z,100.00
2023-07-22T05:54:45.962Z,100.00
2023-07-22T05:57:12.685Z,100.00
2023-07-22T05:59:40.507Z,100.00
2023-07-22T06:02:09.097Z,100.00
2023-07-22T06:04:35.789Z,100.00
2023-07-22T06:07:02.475Z,100.00
2023-07-22T06:09:29.089Z,100.00
2023-07-22T06:11:55.646Z,100.00
2023-07-22T06:14:22.250Z,100.00
2023-07-22T06:16:49.016Z,100.00
2023-07-22T06:19:15.739Z,100.00
2023-07-22T06:21:42.302Z,100.00
2023-07-22T06:24:09.073Z,100.00
2023-07-22T06:26:35.676Z,100.00
2023-07-22T06:29:03.497Z,100.00
2023-07-22T06:31:31.736Z,100.00
2023-07-22T06:34:00.520Z,100.00
2023-07-22T06:36:28.419Z,100.00
2023-07-22T06:38:55.926Z,100.00
2023-07-22T06:41:25.032Z,100.00
2023-07-22T06:43:52.001Z,100.00
2023-07-22T06:46:19.075Z,100.00
2023-07-22T06:48:45.774Z,100.00
2023-07-22T06:51:12.361Z,100.00
2023-07-22T06:53:38.945Z,100.00
2023-07-22T06:56:05.646Z,100.00
2023-07-22T06:58:32.271Z,100.00
2023-07-22T07:00:58.864Z,99.67
2023-07-22T07:03:25.755Z,98.96
2023-07-22T07:05:54.122Z,98.24
2023-07-22T07:08:20.874Z,97.80
2023-07-22T07:10:47.463Z,98.09
2023-07-22T07:13:14.123Z,97.75
2023-07-22T07:15:40.861Z,97.51
2023-07-22T07:18:08.636Z,96.94
2023-07-22T07:20:35.269Z,97.27
2023-07-22T07:23:01.816Z,97.05
2023-07-22T07:25:28.402Z,95.23
2023-07-22T07:27:55.026Z,95.41
2023-07-22T07:30:21.663Z,94.99
2023-07-22T07:32:48.319Z,94.01
2023-07-22T07:35:14.943Z,94.05
2023-07-22T07:37:41.679Z,94.26
2023-07-22T07:40:09.474Z,94.35
2023-07-22T07:42:36.103Z,94.61
2023-07-22T07:45:02.690Z,95.43
2023-07-22T07:47:29.349Z,94.60
2023-07-22T07:49:56.047Z,93.73
2023-07-22T07:52:22.659Z,94.42
2023-07-22T07:54:49.233Z,94.58
2023-07-22T07:57:15.964Z,94.26
2023-07-22T07:59:42.633Z,94.91
2023-07-22T08:02:10.529Z,93.30
2023-07-22T08:04:37.774Z,94.16
2023-07-22T08:07:06.977Z,93.34
2023-07-22T08:09:33.621Z,93.55
2023-07-22T08:12:00.225Z,92.44
2023-07-22T08:14:26.782Z,92.45
2023-07-22T08:16:53.925Z,92.58
2023-07-22T08:19:20.551Z,92.88
2023-07-22T08:21:47.208Z,91.82
2023-07-22T08:24:15.108Z,91.08
2023-07-22T08:26:41.688Z,91.36
2023-07-22T08:29:08.356Z,89.72
2023-07-22T08:31:35.087Z,89.01
2023-07-22T08:34:01.728Z,88.28
2023-07-22T08:36:28.657Z,86.31
2023-07-22T08:38:55.572Z,84.79
2023-07-22T08:41:23.818Z,84.20
2023-07-22T08:43:52.116Z,84.53
2023-07-22T08:46:23.545Z,84.66
2023-07-22T08:48:54.396Z,83.09
2023-07-22T08:51:24.589Z,82.36
2023-07-22T08:56:21.487Z,82.20
2023-07-22T08:58:51.948Z,81.44
2023-07-22T09:01:18.795Z,82.45
2023-07-22T09:03:51.419Z,82.01
2023-07-22T09:06:19.182Z,80.79
2023-07-22T09:08:46.899Z,79.56
2023-07-22T09:11:13.765Z,81.65
2023-07-22T09:13:44.734Z,82.45
2023-07-22T09:16:13.794Z,82.69
2023-07-22T09:18:40.470Z,83.17
2023-07-22T09:21:07.061Z,81.07
2023-07-22T09:23:35.176Z,79.85
2023-07-22T09:26:18.866Z,80.28
2023-07-22T09:28:56.657Z,78.89
2023-07-22T09:31:25.648Z,79.71
2023-07-22T09:33:56.475Z,80.48
2023-07-22T09:36:26.148Z,78.55
2023-07-22T09:39:04.350Z,79.66
2023-07-22T09:41:32.309Z,78.90
2023-07-22T09:44:04.714Z,77.60
2023-07-22T09:46:35.863Z,77.66
2023-07-22T09:49:09.064Z,77.01
2023-07-22T09:51:52.960Z,77.44
2023-07-22T09:54:30.248Z,77.30
2023-07-22T09:56:56.914Z,78.21
2023-07-22T09:59:25.306Z,77.48
2023-07-22T10:01:53.693Z,76.81
2023-07-22T10:04:25.360Z,77.22
2023-07-22T10:06:52.488Z,77.67
2023-07-22T10:09:21.227Z,77.87
2023-07-22T10:11:48.872Z,79.32
2023-07-22T10:14:16.267Z,78.66
2023-07-22T10:16:43.631Z,80.07
2023-07-22T10:19:12.361Z,78.49
2023-07-22T10:21:40.777Z,77.19
2023-07-22T10:24:08.633Z,77.31
2023-07-22T10:26:46.817Z,76.44
2023-07-22T10:29:15.647Z,76.48
2023-07-22T10:31:42.527Z,76.21
2023-07-22T10:34:09.353Z,76.09
2023-07-22T10:36:37.623Z,73.98
2023-07-22T10:39:05.030Z,74.31
2023-07-22T10:41:34.000Z,75.31
2023-07-22T10:44:02.075Z,74.23
2023-07-22T10:46:44.439Z,74.78
2023-07-22T10:49:17.184Z,73.84
2023-07-22T10:51:52.336Z,75.37
2023-07-22T10:54:37.581Z,74.54
2023-07-22T10:57:23.091Z,75.50
2023-07-22T10:59:53.760Z,74.64
2023-07-22T11:02:30.744Z,76.15
2023-07-22T11:05:01.364Z,74.51
2023-07-22T11:07:43.589Z,75.60
2023-07-22T11:10:20.372Z,73.33
2023-07-22T11:12:49.217Z,74.03
2023-07-22T11:15:20.803Z,74.68
2023-07-22T11:38:57.989Z,77.09
2023-07-22T11:41:27.850Z,76.53
2023-07-22T11:43:59.974Z,76.53
2023-07-22T11:46:30.244Z,75.88
2023-07-22T11:49:00.179Z,78.37
2023-07-22T11:51:30.759Z,78.48
2023-07-22T11:53:59.923Z,76.26
2023-07-22T11:56:30.645Z,75.24
2023-07-22T11:59:00.035Z,74.50
2023-07-22T12:01:35.041Z,74.51
2023-07-22T12:04:04.436Z,74.56
2023-07-22T12:06:34.394Z,76.11
2023-07-22T12:09:03.729Z,75.83
2023-07-22T12:11:36.168Z,74.96
2023-07-22T12:14:16.095Z,76.45
2023-07-22T12:16:45.833Z,77.48
2023-07-22T12:19:15.033Z,79.25
2023-07-22T12:21:44.226Z,82.64
2023-07-22T12:24:16.996Z,83.21
2023-07-22T12:26:46.274Z,83.70
2023-07-22T12:29:15.504Z,83.95
2023-07-22T12:31:44.737Z,84.51
2023-07-22T12:34:13.974Z,84.52
2023-07-22T12:36:43.324Z,83.39
2023-07-22T12:39:12.715Z,82.95
2023-07-22T12:41:42.002Z,82.91
2023-07-22T12:44:11.370Z,84.31
2023-07-22T12:46:40.651Z,84.11
2023-07-22T12:49:09.910Z,83.00
2023-07-22T12:51:39.096Z,82.95
2023-07-22T12:54:08.323Z,85.19
2023-07-22T12:56:40.498Z,86.86
2023-07-22T12:59:09.721Z,88.31
2023-07-22T13:01:42.378Z,90.34
2023-07-22T13:04:11.626Z,91.50
2023-07-22T13:06:40.870Z,93.10
2023-07-22T13:09:10.842Z,94.22
2023-07-22T13:11:40.312Z,95.20
2023-07-22T13:14:09.608Z,96.74
2023-07-22T13:16:38.777Z,97.14
2023-07-22T13:19:07.962Z,97.31
2023-07-22T13:21:37.192Z,98.38
2023-07-22T13:24:06.634Z,99.15
2023-07-22T13:26:40.411Z,100.00
2023-07-22T13:29:11.306Z,100.00
2023-07-22T13:31:41.361Z,100.00
2023-07-22T13:34:10.551Z,100.00
2023-07-22T13:36:39.771Z,100.00
2023-07-22T13:39:09.011Z,100.00
2023-07-22T13:41:38.271Z,100.00
2023-07-22T13:44:08.109Z,100.00
2023-07-22T13:46:37.305Z,100.00
2023-07-22T13:49:06.601Z,100.00
2023-07-22T13:51:35.863Z,100.00
2023-07-22T13:54:05.070Z,100.00
2023-07-22T13:56:34.244Z,100.00
2023-07-22T13:59:05.633Z,100.00
2023-07-22T14:01:34.824Z,100.00
2023-07-22T14:04:04.046Z,100.00
2023-07-22T14:06:34.791Z,100.00
2023-07-22T14:09:04.544Z,100.00
2023-07-22T14:11:33.783Z,100.00
2023-07-22T14:14:02.984Z,100.00
2023-07-22T14:16:33.010Z,100.00
2023-07-22T14:19:02.233Z,100.00
2023-07-22T14:21:31.439Z,100.00
2023-07-22T14:24:01.098Z,100.00
2023-07-22T14:26:30.534Z,100.00
2023-07-22T14:29:00.101Z,100.00
2023-07-22T14:31:29.683Z,100.00
2023-07-22T14:33:59.153Z,100.00
2023-07-22T14:36:29.550Z,100.00
2023-07-22T14:38:59.654Z,100.00
2023-07-22T14:41:29.504Z,100.00
2023-07-22T14:43:59.565Z,100.00
2023-07-22T14:46:29.126Z,100.00
2023-07-22T14:48:59.778Z,100.00
2023-07-22T14:51:29.514Z,100.00
2023-07-22T14:53:59.277Z,100.00
2023-07-22T14:56:28.487Z,100.00
2023-07-22T14:58:57.794Z,100.00
2023-07-22T15:01:27.347Z,100.00
2023-07-22T15:03:57.070Z,100.00
2023-07-22T15:06:26.824Z,100.00
2023-07-22T15:08:56.023Z,100.00
2023-07-22T15:11:25.801Z,100.00
2023-07-22T15:13:55.191Z,99.46
2023-07-22T15:16:24.349Z,99.81
2023-07-22T15:18:53.597Z,100.00
2023-07-22T15:21:22.758Z,99.12
2023-07-22T15:23:52.125Z,99.52
2023-07-22T15:26:21.631Z,99.02
2023-07-22T15:28:51.026Z,99.23
2023-07-22T15:31:20.556Z,99.26
2023-07-22T15:33:50.760Z,100.00
2023-07-22T15:36:20.030Z,100.00
2023-07-22T15:38:49.259Z,100.00
2023-07-22T15:41:18.566Z,100.00
2023-07-22T15:43:48.202Z,100.00
2023-07-22T15:46:17.537Z,100.00
2023-07-22T15:48:47.057Z,100.00
2023-07-22T15:51:16.331Z,100.00
2023-07-22T15:53:45.496Z,100.00
2023-07-22T15:56:14.782Z,100.00
2023-07-22T15:58:44.504Z,100.00
2023-07-22T16:01:13.970Z,100.00
2023-07-22T16:03:51.554Z,99.73
2023-07-22T16:06:31.752Z,97.96
2023-07-22T16:09:02.474Z,97.61
2023-07-22T16:11:31.952Z,98.86
2023-07-22T16:14:01.465Z,98.00
2023-07-22T16:16:30.724Z,97.84
2023-07-22T16:19:00.428Z,98.73
2023-07-22T16:21:29.973Z,98.09
2023-07-22T16:23:59.641Z,98.14
2023-07-22T16:26:28.844Z,99.29
2023-07-22T16:28:58.004Z,100.00
2023-07-22T16:31:27.518Z,99.72
2023-07-22T16:33:57.439Z,99.01
2023-07-22T16:36:26.602Z,97.63
2023-07-22T16:38:55.988Z,97.84
2023-07-22T16:41:25.408Z,97.71
2023-07-22T16:43:54.880Z,97.42
2023-07-22T16:46:24.298Z,98.15
2023-07-22T16:48:53.595Z,97.11
2023-07-22T16:51:24.027Z,98.21
2023-07-22T16:53:54.769Z,95.29
2023-07-22T16:56:23.982Z,97.08
2023-07-22T16:58:53.180Z,97.16
2023-07-22T17:01:22.344Z,95.84
2023-07-22T17:03:51.739Z,95.82
2023-07-22T17:06:21.088Z,96.60
2023-07-22T17:08:50.303Z,95.32
2023-07-22T17:11:19.674Z,96.12
2023-07-22T17:13:48.910Z,95.94
2023-07-22T17:16:18.170Z,96.40
2023-07-22T17:18:47.416Z,96.66
2023-07-22T17:21:16.666Z,95.39
2023-07-22T17:23:45.962Z,95.12
2023-07-22T17:26:15.193Z,94.59
2023-07-22T17:28:44.548Z,94.30
2023-07-22T17:31:14.097Z,94.11
2023-07-22T17:33:43.480Z,93.13
2023-07-22T17:36:12.690Z,92.68
2023-07-22T17:38:41.845Z,93.20
2023-07-22T17:41:11.313Z,94.54
2023-07-22T17:43:40.571Z,93.17
2023-07-22T17:46:09.909Z,93.40
2023-07-22T17:48:39.072Z,94.52
2023-07-22T17:51:08.269Z,94.01
2023-07-22T17:53:37.517Z,94.01
2023-07-22T17:56:07.429Z,95.26
2023-07-22T17:58:36.606Z,96.75
2023-07-22T18:01:05.804Z,97.58
2023-07-22T18:03:37.965Z,97.73
2023-07-22T18:06:07.262Z,98.74
2023-07-22T18:08:36.498Z,99.50
2023-07-22T18:11:05.672Z,100.00
2023-07-22T18:13:35.042Z,100.00
2023-07-22T18:16:04.294Z,100.00
2023-07-22T18:18:33.491Z,100.00
2023-07-22T18:21:03.018Z,100.00
2023-07-22T18:23:32.226Z,100.00
2023-07-22T18:26:01.429Z,100.00
2023-07-22T18:28:30.775Z,100.00
2023-07-22T18:31:00.169Z,100.00
2023-07-22T18:33:29.509Z,100.00
2023-07-22T18:35:59.319Z,100.00
2023-07-22T18:38:28.855Z,100.00
2023-07-22T18:40:58.213Z,100.00
2023-07-22T18:43:27.705Z,100.00
2023-07-22T18:45:56.880Z,100.00
2023-07-22T18:48:26.039Z,100.00
2023-07-22T18:50:58.667Z,100.00
2023-07-22T18:53:27.823Z,100.00
2023-07-22T18:55:57.050Z,100.00
2023-07-22T18:58:26.261Z,100.00
2023-07-22T19:00:55.516Z,100.00
2023-07-22T19:03:25.607Z,100.00
2023-07-22T19:05:55.745Z,100.00
2023-07-22T19:08:28.175Z,100.00
2023-07-22T19:10:57.409Z,100.00
2023-07-22T19:13:26.708Z,100.00
2023-07-22T19:15:57.419Z,100.00
2023-07-22T19:18:26.767Z,100.00
2023-07-22T19:21:01.888Z,100.00
2023-07-22T19:23:33.425Z,100.00
2023-07-22T19:26:04.850Z,100.00
2023-07-22T19:28:36.128Z,100.00
2023-07-22T19:31:05.311Z,100.00
2023-07-22T19:33:34.606Z,100.00
2023-07-22T19:36:09.635Z,100.00
2023-07-22T19:38:39.466Z,100.00
2023-07-22T19:41:11.293Z,100.00
2023-07-22T19:43:43.196Z,100.00
2023-07-22T19:46:15.306Z,100.00
2023-07-22T19:48:45.599Z,100.00
2023-07-22T19:51:15.801Z,100.00
2023-07-22T19:53:46.239Z,100.00
2023-07-22T19:56:16.117Z,100.00
2023-07-22T19:58:45.355Z,100.00
2023-07-22T20:01:16.396Z,100.00
2023-07-22T20:03:47.033Z,100.00
2023-07-22T20:06:16.367Z,100.00
2023-07-22T20:08:48.320Z,100.00
2023-07-22T20:11:17.563Z,100.00
2023-07-22T20:13:46.783Z,100.00
2023-07-22T20:16:16.237Z,100.00
2023-07-22T20:18:45.540Z,100.00
2023-07-22T20:21:14.848Z,100.00
2023-07-22T20:23:46.012Z,100.00
2023-07-22T20:26:15.266Z,100.00
2023-07-22T20:28:46.735Z,100.00
2023-07-22T20:31:16.048Z,100.00
2023-07-22T20:33:45.323Z,100.00
2023-07-22T20:36:17.148Z,100.00
2023-07-22T20:38:46.671Z,100.00
2023-07-22T20:41:18.856Z,100.00
2023-07-22T20:43:48.115Z,100.00
2023-07-22T20:46:17.349Z,100.00
2023-07-22T20:48:46.621Z,100.00
2023-07-22T20:51:18.131Z,100.00
2023-07-22T20:53:47.401Z,100.00
2023-07-22T20:56:16.945Z,100.00
2023-07-22T20:58:46.119Z,100.00
2023-07-22T21:01:15.547Z,100.00
2023-07-22T21:03:44.733Z,100.00
2023-07-22T21:06:13.938Z,100.00
2023-07-22T21:08:43.256Z,100.00
2023-07-22T21:11:12.551Z,100.00
2023-07-22T21:13:41.750Z,100.00
2023-07-22T21:16:10.904Z,100.00
2023-07-22T21:18:40.138Z,100.00
2023-07-22T21:21:10.278Z,100.00
2023-07-22T21:23:39.495Z,100.00
2023-07-22T21:26:08.757Z,100.00
2023-07-22T21:28:37.966Z,100.00
2023-07-22T21:31:07.203Z,100.00
2023-07-22T21:33:37.560Z,100.00
2023-07-22T21:36:13.023Z,100.00
2023-07-22T21:38:43.205Z,100.00
2023-07-22T21:41:12.366Z,100.00
2023-07-22T21:43:41.925Z,100.00
2023-07-22T21:46:11.295Z,100.00
2023-07-22T21:48:40.502Z,100.00
2023-07-22T21:51:09.693Z,100.00
2023-07-22T21:53:38.833Z,100.00
2023-07-22T21:56:07.993Z,100.00
2023-07-22T21:58:37.200Z,100.00
2023-07-22T22:01:07.343Z,100.00
2023-07-22T22:03:36.532Z,100.00
2023-07-22T22:06:05.829Z,100.00
2023-07-22T22:08:35.162Z,100.00
2023-07-22T22:11:07.981Z,100.00
2023-07-22T22:13:37.841Z,100.00
2023-07-22T22:16:07.046Z,100.00
2023-07-22T22:18:36.367Z,100.00
2023-07-22T22:21:05.670Z,100.00
2023-07-22T22:23:34.920Z,100.00
2023-07-22T22:26:04.270Z,100.00
2023-07-22T22:28:33.518Z,100.00
2023-07-22T22:31:03.804Z,100.00
2023-07-22T22:33:33.101Z,100.00
2023-07-22T22:36:02.399Z,100.00
2023-07-22T22:38:31.585Z,100.00
2023-07-22T22:41:00.810Z,100.00
2023-07-22T22:43:30.064Z,100.00
2023-07-22T22:45:59.270Z,100.00
2023-07-22T22:48:28.532Z,100.00
2023-07-22T22:50:57.795Z,100.00
2023-07-22T22:53:27.087Z,100.00
2023-07-22T22:55:57.718Z,100.00
2023-07-22T22:58:26.880Z,100.00
2023-07-22T23:00:56.238Z,100.00
2023-07-22T23:03:25.557Z,100.00
2023-07-22T23:05:54.803Z,100.00
2023-07-22T23:08:24.013Z,100.00
2023-07-22T23:10:53.229Z,100.00
2023-07-22T23:13:22.402Z,100.00
2023-07-22T23:15:51.584Z,100.00
2023-07-22T23:18:21.382Z,100.00
2023-07-22T23:20:50.582Z,100.00
2023-07-22T23:23:19.746Z,100.00
2023-07-22T23:25:48.900Z,100.00
2023-07-22T23:28:18.228Z,100.00
2023-07-22T23:30:47.658Z,100.00
2023-07-22T23:33:24.466Z,100.00
2023-07-22T23:35:57.551Z,100.00
2023-07-22T23:38:27.621Z,100.00
2023-07-22T23:40:58.097Z,100.00
2023-07-22T23:43:27.850Z,100.00
2023-07-22T23:45:58.224Z,100.00
2023-07-22T23:48:27.495Z,100.00
2023-07-22T23:50:57.192Z,100.00
2023-07-22T23:53:27.172Z,100.00
2023-07-22T23:55:56.437Z,100.00
2023-07-22T23:58:25.683Z,100.00
